Time;durP1;ratioP1;P1;durP2;ratioP2;P2;SDS_P1;SDS_P2;PMS_P1;PMS_P2;Temp;Humidity;BMP_temperature;BMP_pressure;BME280_temperature;BME280_humidity;BME280_pressure;Samples;Min_cycle;Max_cycle;Signal;HPM_P1;HPM_P2
2021/04/21 00:00:14;;;;;;;10.88;7.68;;;7.20;84.60;;;;;;4879277;29;20053;-91
2021/04/21 00:02:45;;;;;;;10.43;7.72;;;7.20;84.10;;;;;;4883368;29;20048;-90
2021/04/21 00:05:15;;;;;;;9.82;7.20;;;7.20;84.30;;;;;;4898822;29;20045;-90
2021/04/21 00:07:44;;;;;;;11.10;7.75;;;7.10;84.00;;;;;;4901191;29;20119;-89
2021/04/21 00:10:12;;;;;;;11.50;8.60;;;7.10;84.30;;;;;;4900319;29;20033;-90
2021/04/21 00:12:39;;;;;;;12.52;8.98;;;7.10;85.10;;;;;;4901844;29;20013;-89
2021/04/21 00:15:17;;;;;;;10.15;8.10;;;7.00;85.10;;;;;;4901827;29;20050;-91
2021/04/21 00:17:46;;;;;;;10.57;7.75;;;7.00;85.50;;;;;;4897542;29;20032;-91
2021/04/21 00:20:18;;;;;;;11.40;6.88;;;7.00;84.70;;;;;;4895839;29;20029;-90
2021/04/21 00:22:50;;;;;;;9.10;6.38;;;7.00;85.00;;;;;;4895927;29;20029;-90
2021/04/21 00:25:23;;;;;;;8.73;6.50;;;6.90;84.50;;;;;;4893793;29;20065;-90
2021/04/21 00:28:08;;;;;;;9.37;6.53;;;6.90;85.70;;;;;;4879680;29;20033;-91
2021/04/21 00:30:36;;;;;;;;;;;6.90;85.60;;;;;;4894605;29;20100;-90
2021/04/21 00:33:03;;;;;;;8.13;5.72;;;6.80;86.60;;;;;;4879052;29;19912;-91
2021/04/21 00:35:35;;;;;;;9.57;6.05;;;6.80;84.70;;;;;;4894164;29;20481;-90
2021/04/21 00:38:11;;;;;;;11.27;7.70;;;6.80;84.60;;;;;;4894528;29;20030;-92
2021/04/21 00:40:43;;;;;;;13.15;8.77;;;6.80;85.00;;;;;;4894701;29;20053;-91
2021/04/21 00:43:28;;;;;;;12.27;7.68;;;6.80;85.20;;;;;;4892894;29;20041;-89
2021/04/21 00:46:14;;;;;;;11.82;9.00;;;6.80;85.70;;;;;;4890288;29;20090;-90
2021/04/21 00:48:54;;;;;;;10.35;7.55;;;6.70;85.50;;;;;;4887660;29;20041;-91
2021/04/21 00:51:50;;;;;;;9.63;7.45;;;6.70;85.40;;;;;;4883348;29;20045;-91
2021/04/21 00:54:22;;;;;;;13.77;9.98;;;6.70;85.50;;;;;;4846311;29;20455;-91
2021/04/21 00:57:07;;;;;;;14.43;10.05;;;6.70;86.10;;;;;;4878683;29;20033;-91
2021/04/21 00:59:52;;;;;;;;;;;6.70;86.40;;;;;;4881080;29;20029;-90
2021/04/21 01:02:24;;;;;;;12.98;8.60;;;6.70;86.70;;;;;;4865006;29;19908;-91
2021/04/21 01:04:52;;;;;;;14.63;8.52;;;6.60;85.50;;;;;;4878524;29;20124;-91
2021/04/21 01:07:24;;;;;;;15.57;9.63;;;6.60;85.50;;;;;;4878334;29;20037;-91
2021/04/21 01:09:56;;;;;;;16.85;11.10;;;6.50;86.00;;;;;;4878015;29;20098;-91
2021/04/21 01:12:24;;;;;;;18.02;11.80;;;6.50;86.20;;;;;;4878621;29;20119;-91
2021/04/21 01:14:52;;;;;;;19.25;12.75;;;6.50;86.30;;;;;;4878056;29;20507;-90
2021/04/21 01:17:24;;;;;;;20.33;13.50;;;6.40;86.80;;;;;;4878112;29;20033;-91
2021/04/21 01:19:59;;;;;;;21.95;13.50;;;6.40;88.00;;;;;;4863181;29;20033;-91
2021/04/21 01:22:45;;;;;;;21.67;12.65;;;6.40;87.70;;;;;;4878228;29;20033;-90
2021/04/21 01:25:23;;;;;;;23.33;14.52;;;6.30;87.50;;;;;;4877639;29;20109;-91
2021/04/21 01:28:09;;;;;;;28.90;15.40;;;6.30;87.50;;;;;;4877718;29;20034;-90
2021/04/21 01:30:39;;;;;;;26.80;18.08;;;6.30;89.70;;;;;;4863359;29;20375;-91
2021/04/21 01:33:11;;;;;;;22.83;16.02;;;6.30;88.00;;;;;;4877570;29;20034;-91
2021/04/21 01:35:43;;;;;;;27.73;18.88;;;6.20;87.80;;;;;;4878498;29;20414;-91
2021/04/21 01:38:12;;;;;;;28.83;20.75;;;6.30;87.90;;;;;;4877786;29;20040;-91
2021/04/21 01:40:46;;;;;;;32.85;22.83;;;6.20;87.90;;;;;;4881064;29;20030;-91
2021/04/21 01:43:22;;;;;;;25.73;18.13;;;6.20;88.60;;;;;;4888066;29;20096;-90
2021/04/21 01:45:52;;;;;;;25.27;17.00;;;6.30;88.10;;;;;;4894624;29;20038;-90
2021/04/21 01:48:26;;;;;;;19.85;14.40;;;6.20;87.90;;;;;;4885878;29;20089;-91
2021/04/21 01:50:53;;;;;;;17.17;12.38;;;6.30;88.10;;;;;;4901191;29;20041;-89
2021/04/21 01:53:43;;;;;;;20.65;15.13;;;6.30;87.90;;;;;;4898694;29;20029;-91
2021/04/21 01:56:28;;;;;;;16.77;11.05;;;6.20;88.10;;;;;;4900076;29;20053;-90
2021/04/21 01:59:27;;;;;;;17.30;13.32;;;6.30;88.30;;;;;;4890102;29;20034;-90
2021/04/21 02:02:25;;;;;;;16.90;11.00;;;6.30;88.90;;;;;;4881024;29;20058;-91
2021/04/21 02:05:24;;;;;;;15.88;10.73;;;6.30;88.50;;;;;;4890290;29;20030;-91
2021/04/21 02:08:34;;;;;;;16.40;12.20;;;6.30;88.80;;;;;;4883502;29;20033;-91
2021/04/21 02:11:16;;;;;;;19.70;12.10;;;6.40;89.10;;;;;;4877969;29;20037;-91
2021/04/21 02:14:12;;;;;;;19.73;12.63;;;6.40;89.10;;;;;;4876805;29;20034;-91
2021/04/21 02:17:01;;;;;;;16.48;10.43;;;6.40;88.60;;;;;;4877716;29;20037;-91
2021/04/21 02:19:46;;;;;;;20.85;12.55;;;6.50;88.30;;;;;;4851501;29;20124;-91
2021/04/21 02:22:33;;;;;;;17.10;10.95;;;6.50;88.20;;;;;;4877074;29;20037;-91
2021/04/21 02:25:05;;;;;;;16.85;10.50;;;6.50;88.10;;;;;;4858394;29;20046;-90
2021/04/21 02:27:43;;;;;;;20.52;11.85;;;6.50;88.00;;;;;;4843298;29;20026;-91
2021/04/21 02:31:05;;;;;;;15.63;11.15;;;6.60;88.10;;;;;;4843597;29;20086;-91
2021/04/21 02:33:42;;;;;;;16.00;10.90;;;6.60;88.90;;;;;;4787484;29;20108;-91
2021/04/21 02:36:19;;;;;;;16.77;11.05;;;6.60;88.30;;;;;;4787924;30;20122;-91
2021/04/21 02:39:02;;;;;;;17.48;10.73;;;6.60;88.10;;;;;;4818356;29;20501;-89
2021/04/21 02:41:39;;;;;;;16.63;9.98;;;6.60;87.90;;;;;;4843532;29;20121;-90
2021/04/21 02:44:15;;;;;;;16.67;11.27;;;6.60;88.40;;;;;;4843503;29;20037;-92
2021/04/21 02:46:54;;;;;;;18.52;12.80;;;6.60;87.70;;;;;;4843383;29;20527;-91
2021/04/21 02:50:04;;;;;;;18.30;12.02;;;6.60;87.60;;;;;;4842650;29;20466;-91
2021/04/21 02:52:54;;;;;;;14.00;9.85;;;6.50;87.50;;;;;;4842593;29;20046;-91
2021/04/21 02:55:38;;;;;;;16.00;10.77;;;6.50;87.30;;;;;;4842981;29;20106;-91
2021/04/21 02:58:07;;;;;;;16.03;12.17;;;6.50;87.20;;;;;;4843776;29;20064;-91
2021/04/21 03:00:51;;;;;;;17.10;11.60;;;6.40;87.10;;;;;;4843006;29;20303;-91
2021/04/21 03:03:32;;;;;;;16.20;12.23;;;6.40;87.10;;;;;;4843333;29;20034;-91
2021/04/21 03:06:44;;;;;;;16.35;10.90;;;6.30;87.10;;;;;;4843341;29;20076;-91
2021/04/21 03:09:12;;;;;;;15.20;10.25;;;6.30;87.20;;;;;;4831239;29;20049;-91
2021/04/21 03:11:39;;;;;;;16.48;10.65;;;6.20;87.20;;;;;;4846417;29;20065;-91
2021/04/21 03:14:12;;;;;;;16.80;11.05;;;6.20;87.30;;;;;;4846553;29;20034;-91
2021/04/21 03:16:49;;;;;;;16.77;10.27;;;6.20;87.60;;;;;;4848777;29;20084;-92
2021/04/21 03:19:25;;;;;;;19.77;11.88;;;6.10;87.60;;;;;;4847959;29;20079;-91
2021/04/21 03:22:05;;;;;;;15.10;10.52;;;6.10;87.70;;;;;;4848124;29;20030;-90
2021/04/21 03:24:38;;;;;;;15.45;11.02;;;6.10;87.80;;;;;;4848336;29;20038;-91
2021/04/21 03:27:13;;;;;;;14.77;10.13;;;6.10;87.90;;;;;;4847263;29;20098;-91
2021/04/21 03:30:05;;;;;;;19.27;11.07;;;6.10;88.10;;;;;;4858505;29;20018;-89
2021/04/21 03:32:36;;;;;;;15.65;11.65;;;6.10;88.20;;;;;;4863374;29;20022;-90
2021/04/21 03:35:03;;;;;;;16.58;12.05;;;6.10;88.30;;;;;;4869539;29;20053;-90
2021/04/21 03:38:02;;;;;;;20.80;12.60;;;6.20;88.20;;;;;;4869899;29;20056;-89
2021/04/21 03:40:33;;;;;;;20.33;14.32;;;6.20;88.30;;;;;;4838621;29;20133;-91
2021/04/21 03:43:00;;;;;;;25.55;15.15;;;6.20;88.10;;;;;;4848991;29;20072;-91
2021/04/21 03:45:32;;;;;;;21.40;13.45;;;6.20;88.10;;;;;;4848506;29;20186;-91
2021/04/21 03:48:00;;;;;;;25.42;14.68;;;6.20;88.20;;;;;;4847616;29;20037;-91
2021/04/21 03:50:28;;;;;;;26.90;14.93;;;6.20;88.30;;;;;;4846070;29;20026;-91
2021/04/21 03:53:16;;;;;;;24.40;15.05;;;6.20;88.50;;;;;;4846483;29;20058;-91
2021/04/21 03:55:45;;;;;;;21.45;13.88;;;6.30;88.90;;;;;;4846005;29;20037;-91
2021/04/21 03:58:16;;;;;;;23.85;15.70;;;6.30;89.00;;;;;;4845502;29;20082;-90
2021/04/21 04:00:46;;;;;;;21.92;14.73;;;6.30;88.90;;;;;;4846879;29;20026;-91
2021/04/21 04:03:17;;;;;;;23.13;15.07;;;6.40;88.80;;;;;;4845354;29;20038;-91
2021/04/21 04:06:04;;;;;;;21.70;13.82;;;6.40;88.90;;;;;;4845897;29;20038;-91
2021/04/21 04:08:42;;;;;;;22.05;13.95;;;6.50;88.90;;;;;;4845349;29;20045;-91
2021/04/21 04:11:12;;;;;;;21.75;14.40;;;6.60;88.80;;;;;;4845435;29;20040;-91
2021/04/21 04:13:42;;;;;;;23.63;14.55;;;6.60;88.80;;;;;;4844927;29;20033;-91
2021/04/21 04:16:12;;;;;;;26.75;15.30;;;6.70;88.70;;;;;;4845091;29;20041;-91
2021/04/21 04:18:42;;;;;;;24.73;16.83;;;6.80;88.70;;;;;;4844849;29;20034;-91
2021/04/21 04:21:13;;;;;;;25.77;16.30;;;6.90;88.60;;;;;;4845748;29;20030;-91
2021/04/21 04:23:46;;;;;;;24.52;15.45;;;7.00;88.50;;;;;;4845789;29;20033;-91
2021/04/21 04:26:13;;;;;;;26.33;14.52;;;7.10;88.40;;;;;;4868632;29;20052;-91
2021/04/21 04:28:44;;;;;;;19.98;14.05;;;7.20;88.30;;;;;;4878728;29;20034;-91
2021/04/21 04:31:14;;;;;;;23.00;14.15;;;7.30;88.20;;;;;;4882037;29;20120;-91
2021/04/21 04:33:43;;;;;;;21.13;14.52;;;7.40;88.00;;;;;;4890514;29;20045;-91
2021/04/21 04:36:19;;;;;;;19.90;13.60;;;7.50;88.00;;;;;;4890491;29;20039;-91
2021/04/21 04:38:46;;;;;;;20.80;13.10;;;7.70;87.90;;;;;;4872179;29;20034;-91
2021/04/21 04:41:15;;;;;;;23.10;13.65;;;7.80;87.80;;;;;;4879585;29;20034;-91
2021/04/21 04:43:42;;;;;;;21.58;14.63;;;7.90;87.30;;;;;;4878518;29;20030;-91
2021/04/21 04:46:21;;;;;;;26.60;16.50;;;8.00;86.70;;;;;;4878401;29;20033;-91
2021/04/21 04:48:54;;;;;;;24.40;15.32;;;8.10;86.40;;;;;;4880461;29;20103;-91
2021/04/21 04:51:32;;;;;;;23.52;15.45;;;8.10;86.00;;;;;;4879007;29;20541;-91
2021/04/21 04:54:09;;;;;;;24.00;15.93;;;8.20;86.10;;;;;;4879218;29;20033;-91
2021/04/21 04:56:35;;;;;;;21.80;13.82;;;8.30;86.20;;;;;;4864066;29;20029;-91
2021/04/21 04:59:09;;;;;;;19.92;14.80;;;8.40;86.40;;;;;;4878841;29;20032;-91
2021/04/21 05:01:49;;;;;;;20.20;14.13;;;8.60;86.30;;;;;;4879346;29;20412;-92
2021/04/21 05:04:23;;;;;;;19.85;13.80;;;8.80;86.30;;;;;;4879082;29;20052;-90
2021/04/21 05:07:02;;;;;;;19.60;14.13;;;9.00;85.60;;;;;;4863543;29;20030;-91
2021/04/21 05:09:49;;;;;;;23.05;13.93;;;9.10;84.90;;;;;;4880459;29;20044;-91
2021/04/21 05:12:37;;;;;;;;;;;;;;;;;;;;;
2021/04/21 05:15:43;;;;;;;18.45;13.30;;;9.40;84.60;;;;;;4885532;29;20072;-92
2021/04/21 05:18:49;;;;;;;16.52;12.75;;;9.60;83.40;;;;;;4900412;29;20021;-90
2021/04/21 05:21:55;;;;;;;15.02;10.75;;;9.80;83.20;;;;;;4900506;29;20334;-91
2021/04/21 05:24:23;;;;;;;14.60;9.63;;;10.00;83.00;;;;;;4898267;29;20044;-91
2021/04/21 05:26:57;;;;;;;14.75;11.25;;;10.20;82.80;;;;;;4884737;29;20053;-91
2021/04/21 05:30:03;;;;;;;14.70;9.75;;;10.40;80.90;;;;;;4888514;29;20049;-90
2021/04/21 05:32:56;;;;;;;13.63;10.27;;;10.50;79.50;;;;;;4886697;29;20029;-91
2021/04/21 05:36:07;;;;;;;12.13;9.65;;;10.40;78.10;;;;;;4884527;29;20034;-91
2021/04/21 05:39:05;;;;;;;17.02;9.52;;;10.30;77.20;;;;;;4878135;29;20462;-91
2021/04/21 05:41:39;;;;;;;13.93;8.27;;;10.20;78.30;;;;;;4861381;29;20041;-91
2021/04/21 05:44:30;;;;;;;11.63;9.32;;;10.20;79.40;;;;;;4886901;29;20036;-91
2021/04/21 05:47:57;;;;;;;12.77;9.05;;;10.30;79.80;;;;;;4891664;29;20036;-91
2021/04/21 05:50:44;;;;;;;12.20;8.30;;;10.40;78.10;;;;;;4838155;29;20120;-91
2021/04/21 05:53:25;;;;;;;13.75;10.25;;;10.40;78.10;;;;;;4875717;29;20056;-92
2021/04/21 05:56:23;;;;;;;13.25;10.77;;;10.30;77.30;;;;;;4875548;29;20037;-91
2021/04/21 05:59:06;;;;;;;13.95;10.13;;;10.20;77.90;;;;;;4877534;29;20069;-91
2021/04/21 06:01:53;;;;;;;13.77;10.63;;;10.10;78.10;;;;;;4891111;29;20093;-90
2021/04/21 06:04:23;;;;;;;13.00;9.23;;;10.00;78.20;;;;;;4890522;29;20033;-90
2021/04/21 06:07:03;;;;;;;12.82;9.50;;;9.90;78.80;;;;;;4886455;29;20025;-91
2021/04/21 06:09:32;;;;;;;12.60;8.95;;;9.90;79.20;;;;;;4877580;29;20029;-90
2021/04/21 06:12:15;;;;;;;11.88;9.68;;;9.90;79.60;;;;;;4878438;29;20033;-90
2021/04/21 06:14:44;;;;;;;13.57;9.85;;;9.90;79.60;;;;;;4878436;29;20125;-90
2021/04/21 06:17:22;;;;;;;14.27;10.55;;;9.90;79.70;;;;;;4863657;29;20093;-91
2021/04/21 06:19:51;;;;;;;11.35;9.30;;;9.90;79.90;;;;;;4879514;29;20034;-91
2021/04/21 06:22:45;;;;;;;13.07;9.07;;;9.80;80.20;;;;;;4878833;29;20026;-92
2021/04/21 06:25:20;;;;;;;10.45;8.40;;;9.80;80.60;;;;;;4880341;29;20202;-91
2021/04/21 06:27:59;;;;;;;12.07;8.95;;;9.70;80.50;;;;;;4880719;29;20034;-90
2021/04/21 06:30:33;;;;;;;11.70;9.15;;;9.60;81.10;;;;;;4882341;29;20035;-91
2021/04/21 06:33:22;;;;;;;10.45;8.10;;;9.50;81.60;;;;;;4879265;29;20036;-91
2021/04/21 06:36:10;;;;;;;11.27;9.05;;;9.50;83.40;;;;;;4881856;29;20037;-91
2021/04/21 06:38:44;;;;;;;13.95;9.70;;;9.40;84.20;;;;;;4883586;29;20454;-91
2021/04/21 06:41:21;;;;;;;10.93;8.57;;;9.30;83.80;;;;;;4881625;29;20473;-91
2021/04/21 06:43:56;;;;;;;14.27;10.02;;;9.30;84.00;;;;;;4880255;29;20124;-91
2021/04/21 06:46:27;;;;;;;10.52;9.07;;;9.20;84.40;;;;;;4878737;29;20037;-91
2021/04/21 06:48:58;;;;;;;14.18;10.88;;;9.30;84.70;;;;;;4880111;29;20036;-90
2021/04/21 06:51:29;;;;;;;15.85;10.57;;;9.30;85.60;;;;;;4874402;29;20029;-91
2021/04/21 06:53:56;;;;;;;12.38;9.40;;;9.30;85.20;;;;;;4866860;29;20036;-91
2021/04/21 06:56:47;;;;;;;11.60;8.32;;;9.30;85.60;;;;;;4874872;29;20123;-93
2021/04/21 06:59:20;;;;;;;9.38;7.55;;;9.50;85.70;;;;;;4883261;29;20560;-91
2021/04/21 07:01:51;;;;;;;12.60;8.52;;;9.60;85.40;;;;;;4883731;29;20026;-92
2021/04/21 07:04:20;;;;;;;8.75;7.03;;;9.70;85.40;;;;;;4864652;29;20021;-91
2021/04/21 07:06:55;;;;;;;10.18;7.72;;;9.90;85.10;;;;;;4897420;29;20040;-91
2021/04/21 07:09:23;;;;;;;11.02;8.13;;;10.10;84.90;;;;;;4904624;29;20046;-91
2021/04/21 07:12:18;;;;;;;11.88;8.55;;;10.30;84.10;;;;;;4905066;29;20032;-94
2021/04/21 07:14:48;;;;;;;11.90;8.50;;;10.60;84.30;;;;;;4898738;29;20101;-92
2021/04/21 07:17:21;;;;;;;11.05;8.13;;;10.80;84.10;;;;;;4895006;29;20029;-92
2021/04/21 07:19:50;;;;;;;9.63;7.43;;;11.00;83.30;;;;;;4882053;29;20029;-92
2021/04/21 07:22:29;;;;;;;;;;;;;;;;;;;;;
2021/04/21 07:25:33;;;;;;;;;;;;;;;;;;;;;
2021/04/21 07:28:00;;;;;;;10.82;8.40;;;11.00;80.40;;;;;;4885313;29;20032;-92
2021/04/21 07:30:37;;;;;;;12.20;8.38;;;11.00;81.20;;;;;;4867526;29;20037;-92
2021/04/21 07:33:09;;;;;;;11.05;7.85;;;11.00;80.40;;;;;;4868714;29;20033;-91
2021/04/21 07:35:38;;;;;;;10.02;8.27;;;11.00;80.30;;;;;;4882896;29;20124;-92
2021/04/21 07:38:18;;;;;;;12.45;9.15;;;11.10;80.20;;;;;;4889779;29;20215;-92
2021/04/21 07:41:02;;;;;;;8.90;7.18;;;11.10;78.60;;;;;;4863769;29;20069;-90
2021/04/21 07:43:42;;;;;;;10.65;8.20;;;11.10;78.60;;;;;;4880714;29;20041;-92
2021/04/21 07:46:35;;;;;;;10.40;7.88;;;11.10;77.90;;;;;;4882539;29;20040;-92
2021/04/21 07:49:06;;;;;;;11.13;8.43;;;10.90;77.80;;;;;;4890016;29;20132;-90
2021/04/21 07:51:36;;;;;;;7.97;6.47;;;10.80;78.00;;;;;;4886700;29;20029;-90
2021/04/21 07:54:06;;;;;;;10.88;7.90;;;10.80;78.40;;;;;;4880818;29;20039;-92
2021/04/21 07:56:35;;;;;;;10.27;7.50;;;10.80;78.10;;;;;;4882580;29;20055;-91
2021/04/21 07:59:17;;;;;;;7.50;6.70;;;10.90;78.70;;;;;;4884786;29;20029;-88
2021/04/21 08:01:44;;;;;;;8.10;6.53;;;11.20;79.20;;;;;;4879147;29;20021;-91
2021/04/21 08:04:26;;;;;;;9.20;7.25;;;11.50;79.10;;;;;;4880492;29;20067;-90
2021/04/21 08:07:00;;;;;;;8.27;6.50;;;11.70;77.80;;;;;;4880611;29;20069;-90
2021/04/21 08:09:35;;;;;;;;;;;11.80;76.60;;;;;;4881188;29;20488;-90
2021/04/21 08:12:13;;;;;;;6.75;5.78;;;11.80;73.70;;;;;;4881759;29;19911;-89
2021/04/21 08:14:39;;;;;;;8.18;6.45;;;11.90;73.40;;;;;;4880654;29;20043;-89
2021/04/21 08:17:05;;;;;;;7.85;6.50;;;11.90;75.00;;;;;;4880263;29;20033;-90
2021/04/21 08:19:40;;;;;;;7.10;5.65;;;12.00;74.20;;;;;;4880466;29;20029;-89
2021/04/21 08:22:07;;;;;;;9.65;7.55;;;12.00;73.20;;;;;;4882143;29;20029;-90
2021/04/21 08:24:44;;;;;;;9.43;6.95;;;11.90;73.30;;;;;;4880391;29;20061;-90
2021/04/21 08:27:15;;;;;;;8.55;6.78;;;12.00;73.20;;;;;;4846148;29;20071;-90
2021/04/21 08:29:43;;;;;;;8.93;7.20;;;12.10;73.10;;;;;;4864454;29;20525;-90
2021/04/21 08:32:11;;;;;;;8.63;7.28;;;12.10;72.70;;;;;;4846600;29;20117;-90
2021/04/21 08:34:37;;;;;;;7.60;6.45;;;12.20;73.10;;;;;;4846730;29;20393;-91
2021/04/21 08:37:04;;;;;;;8.30;6.13;;;12.20;72.80;;;;;;4846383;29;20056;-88
2021/04/21 08:39:31;;;;;;;8.15;6.30;;;12.20;72.00;;;;;;4846516;29;20438;-90
2021/04/21 08:41:59;;;;;;;7.43;6.43;;;12.20;72.10;;;;;;4846727;29;20081;-92
2021/04/21 08:44:40;;;;;;;8.40;7.28;;;12.10;71.90;;;;;;4846830;29;20559;-89
2021/04/21 08:47:09;;;;;;;8.27;6.18;;;12.10;71.70;;;;;;4847473;29;20212;-89
2021/04/21 08:49:36;;;;;;;7.72;6.25;;;11.90;72.20;;;;;;4867069;29;20090;-90
2021/04/21 08:53:00;;;;;;;;;;;;;;;;;;;;;
2021/04/21 08:56:00;;;;;;;7.15;5.65;;;11.90;73.40;;;;;;4884236;29;20069;-88
2021/04/21 08:58:50;;;;;;;7.63;5.82;;;12.00;72.80;;;;;;4855275;29;20021;-88
2021/04/21 09:01:53;;;;;;;7.72;6.30;;;12.10;73.00;;;;;;4848109;29;20422;-88
2021/04/21 09:04:54;;;;;;;6.60;5.68;;;12.30;72.00;;;;;;4851440;29;20117;-89
2021/04/21 09:07:49;;;;;;;5.47;4.35;;;12.50;70.30;;;;;;4844043;29;20055;-88
2021/04/21 09:10:50;;;;;;;6.70;6.05;;;12.60;70.40;;;;;;4861397;29;20125;-88
2021/04/21 09:13:18;;;;;;;6.50;5.75;;;12.80;70.50;;;;;;4772428;30;20054;-87
2021/04/21 09:16:11;;;;;;;6.68;5.50;;;12.80;69.40;;;;;;4787429;30;20054;-87
2021/04/21 09:18:58;;;;;;;7.05;5.43;;;12.90;68.00;;;;;;4861673;29;20056;-89
2021/04/21 09:21:55;;;;;;;8.32;5.78;;;12.80;68.60;;;;;;4840881;29;20061;-88
2021/04/21 09:24:28;;;;;;;6.97;5.05;;;12.70;68.50;;;;;;4843820;29;20037;-89
2021/04/21 09:27:50;;;;;;;;;;;;;;;;;;;;;
2021/04/21 09:30:50;;;;;;;;;;;;;;;;;;;;;
2021/04/21 09:33:58;;;;;;;7.28;6.35;;;12.10;69.00;;;;;;4860852;29;20033;-88
2021/04/21 09:36:34;;;;;;;6.30;5.57;;;11.80;69.60;;;;;;4831664;29;20050;-89
2021/04/21 09:47:03;;;;;;;6.45;4.63;;;11.30;73.90;;;;;;4751470;30;20090;-91
2021/04/21 09:57:23;;;;;;;6.00;4.93;;;11.60;73.90;;;;;;4763028;30;20066;-90
2021/04/21 10:04:10;;;;;;;10.15;5.70;;;12.00;72.10;;;;;;4766223;30;20077;-89
2021/04/21 10:14:02;;;;;;;6.47;4.70;;;12.30;71.80;;;;;;4792940;29;20033;-90
2021/04/21 10:17:26;;;;;;;;;;;;;;;;;;;;;
2021/04/21 10:23:47;;;;;;;;;;;;;;;;;;;;;
2021/04/21 10:30:46;;;;;;;3.92;3.53;;;13.20;62.60;;;;;;4806584;29;20066;-91
2021/04/21 10:34:06;;;;;;;;;;;;;;;;;;;;;
2021/04/21 11:50:24;;;;;;;;;;;;;;;;;;;;;
2021/04/21 12:28:44;;;;;;;;;;;;;;;;;;;;;
2021/04/21 12:32:15;;;;;;;;;;;;;;;;;;;;;
2021/04/21 15:41:13;;;;;;;3.55;2.78;;;17.90;57.20;;;;;;512141;27;21004;-88
2021/04/21 15:44:29;;;;;;;2.67;2.45;;;17.40;56.70;;;;;;4799541;29;20059;-90
2021/04/21 15:51:21;;;;;;;;;;;;;;;;;;;;;
2021/04/21 16:02:23;;;;;;;;;;;;;;;;;;;;;
2021/04/21 16:04:52;;;;;;;4.93;3.95;;;15.80;57.40;;;;;;4707882;30;20036;-90
2021/04/21 16:08:05;;;;;;;;;;;;;;;;;;;;;
2021/04/21 16:11:10;;;;;;;;;;;;;;;;;;;;;
2021/04/21 16:14:05;;;;;;;4.60;4.00;;;14.40;59.50;;;;;;4775250;30;20476;-93
2021/04/21 16:16:37;;;;;;;5.22;3.83;;;14.10;60.40;;;;;;4759251;30;20106;-91
2021/04/21 16:19:14;;;;;;;8.25;5.30;;;14.00;61.60;;;;;;4851205;29;20042;-92
2021/04/21 16:21:44;;;;;;;6.68;4.95;;;14.20;62.00;;;;;;4901967;29;20040;-88
2021/04/21 16:24:25;;;;;;;9.35;6.43;;;14.40;61.80;;;;;;4902707;29;20093;-89
2021/04/21 16:26:58;;;;;;;9.68;6.53;;;14.50;61.60;;;;;;4904843;29;20065;-90
2021/04/21 16:29:31;;;;;;;8.85;6.68;;;14.40;61.20;;;;;;4903436;29;20021;-91
2021/04/21 16:32:01;;;;;;;7.80;6.03;;;14.30;61.10;;;;;;4896674;29;20052;-93
2021/04/21 16:37:29;;;;;;;5.80;4.57;;;13.80;61.60;;;;;;4919752;29;20037;-92
2021/04/21 16:40:25;;;;;;;5.55;4.22;;;13.50;62.20;;;;;;4919074;29;20032;-93
2021/04/21 16:43:11;;;;;;;;;;;;;;;;;;;;;
2021/04/21 16:45:59;;;;;;;;;;;;;;;;;;;;;
2021/04/21 16:48:50;;;;;;;5.43;4.70;;;12.60;63.80;;;;;;4893924;29;20100;-92
2021/04/21 16:51:20;;;;;;;9.50;7.00;;;12.30;64.80;;;;;;4885084;29;20447;-92
2021/04/21 16:57:07;;;;;;;8.18;7.38;;;11.90;66.40;;;;;;4883181;29;20060;-93
2021/04/21 17:00:04;;;;;;;7.97;6.32;;;11.70;67.30;;;;;;4880533;29;20489;-92
2021/04/21 17:02:48;;;;;;;7.70;6.50;;;11.50;67.80;;;;;;4879508;29;20120;-93
2021/04/21 17:05:46;;;;;;;;;;;;;;;;;;;;;
2021/04/21 17:08:27;;;;;;;8.65;5.82;;;11.10;69.00;;;;;;4886893;29;20124;-94
2021/04/21 17:10:58;;;;;;;7.88;6.18;;;10.90;69.70;;;;;;4897096;29;20036;-94
2021/04/21 17:13:33;;;;;;;7.68;6.07;;;10.80;70.00;;;;;;4887689;29;20110;-95
2021/04/21 17:16:30;;;;;;;8.43;5.93;;;10.70;70.70;;;;;;4882603;29;20152;-93
2021/04/21 17:19:15;;;;;;;9.77;5.43;;;10.50;71.00;;;;;;4879419;29;20052;-94
2021/04/21 17:21:56;;;;;;;7.32;5.63;;;10.40;71.50;;;;;;4897306;29;20033;-96
2021/04/21 17:25:06;;;;;;;8.73;6.38;;;10.30;71.90;;;;;;4886299;29;20037;-95
2021/04/21 17:30:47;;;;;;;8.48;5.85;;;10.10;72.90;;;;;;4883135;29;20056;-93
2021/04/21 17:33:16;;;;;;;7.47;5.15;;;9.90;73.20;;;;;;4858609;29;20040;-93
2021/04/21 17:36:14;;;;;;;9.48;5.78;;;9.80;73.40;;;;;;4894419;29;20045;-91
2021/04/21 17:39:00;;;;;;;9.25;5.50;;;9.80;73.80;;;;;;4883372;29;20465;-90
2021/04/21 17:41:33;;;;;;;6.80;5.40;;;9.70;74.00;;;;;;4881068;29;20116;-91
2021/04/21 17:44:02;;;;;;;7.38;5.50;;;9.60;74.40;;;;;;4879867;29;20128;-92
2021/04/21 17:46:30;;;;;;;7.63;5.80;;;9.60;74.70;;;;;;4864503;29;20041;-90
2021/04/21 17:48:59;;;;;;;12.10;6.32;;;9.60;75.00;;;;;;4880838;29;20041;-90
2021/04/21 17:51:26;;;;;;;8.23;4.88;;;9.50;75.70;;;;;;4879438;29;20033;-90
2021/04/21 17:53:53;;;;;;;7.65;6.03;;;9.50;75.30;;;;;;4881277;29;20148;-90
2021/04/21 17:56:20;;;;;;;8.27;6.00;;;9.50;75.50;;;;;;4864521;29;20044;-91
2021/04/21 17:58:49;;;;;;;7.13;5.20;;;9.40;75.70;;;;;;4880835;29;20037;-90
2021/04/21 18:01:24;;;;;;;6.85;5.82;;;9.40;75.90;;;;;;4881262;29;20029;-91
2021/04/21 18:03:50;;;;;;;7.28;5.10;;;9.40;76.10;;;;;;4901761;29;20092;-91
2021/04/21 18:06:21;;;;;;;8.40;5.85;;;9.40;76.10;;;;;;4902365;29;20040;-92
2021/04/21 18:08:48;;;;;;;7.30;5.50;;;9.40;76.20;;;;;;4886585;29;20013;-92
2021/04/21 18:11:19;;;;;;;7.65;5.47;;;9.40;76.80;;;;;;4902941;29;20014;-90
2021/04/21 18:13:47;;;;;;;7.63;4.93;;;9.50;76.40;;;;;;4889512;29;20034;-90
2021/04/21 18:16:17;;;;;;;6.45;4.68;;;9.50;76.50;;;;;;4881283;29;20033;-90
2021/04/21 18:18:42;;;;;;;5.63;4.65;;;9.50;76.40;;;;;;4880622;29;20029;-90
2021/04/21 18:21:14;;;;;;;8.48;4.95;;;9.60;76.50;;;;;;4879901;29;20040;-90
2021/04/21 18:23:40;;;;;;;6.30;4.47;;;9.60;76.60;;;;;;4880329;29;20075;-90
2021/04/21 18:26:08;;;;;;;6.88;4.18;;;9.70;76.70;;;;;;4881057;29;20053;-90
2021/04/21 18:28:34;;;;;;;6.65;5.05;;;9.70;76.60;;;;;;4879930;29;20040;-90
2021/04/21 18:30:59;;;;;;;8.68;5.60;;;9.70;76.60;;;;;;4879723;29;20029;-89
2021/04/21 18:33:25;;;;;;;6.88;4.93;;;9.80;76.50;;;;;;4880129;29;20130;-90
2021/04/21 18:35:51;;;;;;;6.88;5.38;;;9.90;76.50;;;;;;4879739;29;20502;-90
2021/04/21 18:38:26;;;;;;;10.10;5.82;;;9.90;76.40;;;;;;4880976;29;20037;-90
2021/04/21 18:40:55;;;;;;;7.22;5.65;;;9.90;76.20;;;;;;4879362;29;20565;-90
2021/04/21 18:43:21;;;;;;;7.93;5.70;;;10.00;76.00;;;;;;4879757;29;20036;-90
2021/04/21 18:45:47;;;;;;;10.80;6.93;;;9.90;75.80;;;;;;4881123;29;20037;-90
2021/04/21 18:48:22;;;;;;;10.95;7.85;;;9.90;75.70;;;;;;4883932;29;20032;-90
2021/04/21 18:50:48;;;;;;;8.27;6.75;;;9.80;75.70;;;;;;4883887;29;20081;-90
2021/04/21 18:53:17;;;;;;;7.00;5.70;;;9.70;75.70;;;;;;4884413;29;20058;-90
2021/04/21 18:55:45;;;;;;;8.00;5.93;;;9.70;75.90;;;;;;4883619;29;20037;-90
2021/04/21 18:58:17;;;;;;;8.05;6.22;;;9.60;76.00;;;;;;4884339;29;20389;-90
2021/04/21 19:00:42;;;;;;;7.18;5.32;;;9.60;76.20;;;;;;4883994;29;20108;-90
2021/04/21 19:03:09;;;;;;;6.43;5.72;;;9.50;76.30;;;;;;4883238;29;20176;-90
2021/04/21 19:05:34;;;;;;;10.60;7.55;;;9.50;76.50;;;;;;4884286;29;20033;-90
2021/04/21 19:08:00;;;;;;;15.30;10.75;;;9.40;76.60;;;;;;4883280;29;20077;-90
2021/04/21 19:10:26;;;;;;;18.08;13.55;;;9.40;76.80;;;;;;4883856;29;20036;-90
2021/04/21 19:12:54;;;;;;;23.77;15.73;;;9.30;76.90;;;;;;4883299;29;20036;-90
2021/04/21 19:15:23;;;;;;;21.95;16.05;;;9.30;77.10;;;;;;4883898;29;20380;-90
2021/04/21 19:17:50;;;;;;;19.13;15.27;;;9.40;77.20;;;;;;4882548;29;20468;-90
2021/04/21 19:20:19;;;;;;;21.65;15.18;;;9.30;77.30;;;;;;4882638;29;20029;-90
2021/04/21 19:22:45;;;;;;;18.80;14.80;;;9.40;77.50;;;;;;4883486;29;20097;-90
2021/04/21 19:25:15;;;;;;;17.88;12.82;;;9.40;77.50;;;;;;4882692;29;20033;-90
2021/04/21 19:27:44;;;;;;;11.85;9.88;;;9.40;77.60;;;;;;4882712;29;20033;-90
2021/04/21 19:30:19;;;;;;;12.63;9.88;;;9.40;77.70;;;;;;4882795;29;20033;-90
2021/04/21 19:32:46;;;;;;;12.60;9.00;;;9.40;77.70;;;;;;4882724;29;20029;-90
2021/04/21 19:35:13;;;;;;;11.85;8.90;;;9.40;77.70;;;;;;4883151;29;20033;-90
2021/04/21 19:37:42;;;;;;;10.52;7.22;;;9.30;77.60;;;;;;4882396;29;20048;-89
2021/04/21 19:40:09;;;;;;;10.25;6.25;;;9.30;77.60;;;;;;4890814;29;20028;-91
2021/04/21 19:42:37;;;;;;;10.13;6.57;;;9.20;77.60;;;;;;4906337;29;20041;-89
2021/04/21 19:45:14;;;;;;;7.13;5.43;;;9.20;77.70;;;;;;4906332;29;20041;-88
2021/04/21 19:47:40;;;;;;;8.35;5.53;;;9.10;77.80;;;;;;4905582;29;20029;-88
2021/04/21 19:50:09;;;;;;;7.93;5.47;;;9.00;77.90;;;;;;4896270;29;20393;-88
2021/04/21 19:52:38;;;;;;;6.38;5.47;;;8.90;78.10;;;;;;4894437;29;20058;-89
2021/04/21 19:55:19;;;;;;;;;;;;;;;;;;;;;
2021/04/21 19:57:57;;;;;;;9.50;6.13;;;8.80;78.60;;;;;;4884205;29;20041;-91